Time;durP1;ratioP1;P1;durP2;ratioP2;P2;SDS_P1;SDS_P2;PMS_P1;PMS_P2;Temp;Humidity;BMP_temperature;BMP_pressure;BME280_temperature;BME280_humidity;BME280_pressure;Samples;Min_cycle;Max_cycle;Signal;HPM_P1;HPM_P2
2022/09/17 00:04:52;;;;;;;14.27;6.65;;;;;;;;;;10219260;29;20548;-75
2022/09/17 00:09:53;;;;;;;11.20;6.68;;;;;;;;;;10195921;29;20106;-73
2022/09/17 00:14:53;;;;;;;14.02;5.60;;;;;;;;;;10222593;29;20078;-75
2022/09/17 00:19:53;;;;;;;13.57;5.63;;;;;;;;;;10197971;29;20052;-78
2022/09/17 00:24:53;;;;;;;16.07;5.77;;;;;;;;;;10189428;29;20028;-74
2022/09/17 00:29:54;;;;;;;13.80;5.53;;;;;;;;;;10163690;29;20092;-75
2022/09/17 00:34:54;;;;;;;13.43;5.03;;;;;;;;;;10164689;29;20032;-75
2022/09/17 00:39:54;;;;;;;11.32;5.53;;;;;;;;;;10163856;29;20035;-75
2022/09/17 00:44:55;;;;;;;15.48;5.82;;;;;;;;;;10163250;29;20027;-75
2022/09/17 00:50:05;;;;;;;13.27;6.80;;;;;;;;;;10187309;29;20066;-73
2022/09/17 00:55:38;;;;;;;14.30;4.93;;;;;;;;;;10195646;29;20032;-75
2022/09/17 01:00:39;;;;;;;11.07;5.53;;;;;;;;;;10149948;29;20040;-74
2022/09/17 01:05:45;;;;;;;14.82;5.60;;;;;;;;;;10169625;29;20036;-73
2022/09/17 01:11:09;;;;;;;13.27;5.85;;;;;;;;;;10171499;29;20031;-73
2022/09/17 01:16:27;;;;;;;15.13;5.80;;;;;;;;;;10169972;29;20139;-74
2022/09/17 01:21:46;;;;;;;9.48;5.43;;;;;;;;;;10193620;29;20023;-73
2022/09/17 01:27:05;;;;;;;13.07;5.97;;;;;;;;;;10222317;29;20401;-74
2022/09/17 01:32:14;;;;;;;13.50;6.13;;;;;;;;;;10194453;29;20035;-77
2022/09/17 01:37:33;;;;;;;12.68;4.85;;;;;;;;;;10230885;29;20028;-74
2022/09/17 01:42:36;;;;;;;12.45;5.88;;;;;;;;;;10194037;29;20024;-77
2022/09/17 01:47:38;;;;;;;16.30;5.85;;;;;;;;;;10191924;29;20059;-73
2022/09/17 01:52:40;;;;;;;13.90;5.35;;;;;;;;;;10216984;29;20557;-74
2022/09/17 01:57:50;;;;;;;14.65;5.78;;;;;;;;;;10216720;28;20023;-73
2022/09/17 02:03:05;;;;;;;14.43;5.70;;;;;;;;;;10209269;29;20054;-73
2022/09/17 02:08:13;;;;;;;10.60;5.53;;;;;;;;;;10208825;29;20027;-73
2022/09/17 02:13:17;;;;;;;13.77;4.83;;;;;;;;;;10218166;29;20562;-73
2022/09/17 02:18:17;;;;;;;9.75;5.72;;;;;;;;;;10247632;29;20336;-74
2022/09/17 02:23:21;;;;;;;12.32;4.60;;;;;;;;;;10195854;29;20031;-74
2022/09/17 02:28:26;;;;;;;13.10;4.95;;;;;;;;;;10207728;28;20446;-76
2022/09/17 02:33:27;;;;;;;9.60;5.07;;;;;;;;;;10207066;29;20069;-75
2022/09/17 02:38:29;;;;;;;10.50;4.57;;;;;;;;;;10208770;29;20036;-78
2022/09/17 02:43:30;;;;;;;16.65;6.00;;;;;;;;;;10206956;29;20597;-73
2022/09/17 02:48:45;;;;;;;18.55;7.28;;;;;;;;;;10206462;28;20034;-73
2022/09/17 02:54:04;;;;;;;11.30;5.95;;;;;;;;;;10205851;28;20038;-73
2022/09/17 02:59:27;;;;;;;6.05;4.32;;;;;;;;;;10212180;28;20106;-73
2022/09/17 03:04:28;;;;;;;11.00;4.00;;;;;;;;;;10185560;29;20399;-73
2022/09/17 03:09:29;;;;;;;13.43;3.75;;;;;;;;;;10249203;28;20028;-76
2022/09/17 03:14:29;;;;;;;9.55;4.38;;;;;;;;;;10244085;29;20030;-76
2022/09/17 03:19:29;;;;;;;22.10;4.28;;;;;;;;;;10194521;29;20051;-74
2022/09/17 03:24:30;;;;;;;15.63;4.00;;;;;;;;;;10186750;29;20035;-73
2022/09/17 03:29:30;;;;;;;12.35;4.45;;;;;;;;;;10186291;29;20024;-75
2022/09/17 03:34:30;;;;;;;7.80;3.85;;;;;;;;;;10187786;29;20033;-76
2022/09/17 03:39:30;;;;;;;7.40;3.20;;;;;;;;;;10186382;29;20155;-80
2022/09/17 03:44:31;;;;;;;15.10;4.15;;;;;;;;;;10186509;29;20884;-78
2022/09/17 03:49:31;;;;;;;6.72;3.85;;;;;;;;;;10186601;29;20118;-76
2022/09/17 03:54:31;;;;;;;8.55;4.57;;;;;;;;;;10180283;29;20039;-73
2022/09/17 03:59:31;;;;;;;9.88;4.00;;;;;;;;;;10153746;29;20620;-75
2022/09/17 04:04:32;;;;;;;14.20;4.93;;;;;;;;;;10148540;29;20324;-78
2022/09/17 04:09:32;;;;;;;12.43;4.75;;;;;;;;;;10171307;29;20729;-77
2022/09/17 04:14:33;;;;;;;9.30;3.72;;;;;;;;;;10171592;29;20028;-76
2022/09/17 04:19:33;;;;;;;10.98;3.45;;;;;;;;;;10199028;29;20518;-77
2022/09/17 04:24:33;;;;;;;17.40;3.03;;;;;;;;;;10222183;28;20038;-77
2022/09/17 04:29:33;;;;;;;13.18;4.68;;;;;;;;;;10203068;28;20055;-73
2022/09/17 04:34:34;;;;;;;9.88;3.40;;;;;;;;;;10225082;29;20034;-74
2022/09/17 04:39:34;;;;;;;6.70;3.67;;;;;;;;;;10214142;28;20387;-75
2022/09/17 04:44:34;;;;;;;6.27;3.07;;;;;;;;;;10204506;28;20283;-74
2022/09/17 04:49:35;;;;;;;9.95;3.50;;;;;;;;;;10206431;28;20662;-77
2022/09/17 04:54:35;;;;;;;16.88;4.03;;;;;;;;;;10194179;29;20027;-77
2022/09/17 04:59:35;;;;;;;8.45;4.35;;;;;;;;;;10194380;29;20038;-74
2022/09/17 05:04:35;;;;;;;9.90;4.83;;;;;;;;;;10210668;29;20039;-75
2022/09/17 05:09:36;;;;;;;14.23;5.53;;;;;;;;;;10219943;28;20092;-74
2022/09/17 05:14:36;;;;;;;10.95;5.07;;;;;;;;;;10210499;28;20032;-74
2022/09/17 05:19:36;;;;;;;23.45;8.60;;;;;;;;;;10231288;29;20078;-74
2022/09/17 05:24:38;;;;;;;10.35;5.93;;;;;;;;;;10218085;28;20506;-75
2022/09/17 05:29:38;;;;;;;16.90;7.18;;;;;;;;;;10209833;28;20037;-75
2022/09/17 05:34:39;;;;;;;18.98;7.80;;;;;;;;;;10253578;23;20058;-73
2022/09/17 05:39:39;;;;;;;13.23;5.25;;;;;;;;;;10231629;28;20524;-73
2022/09/17 05:44:40;;;;;;;17.92;5.88;;;;;;;;;;10231161;29;20031;-74
2022/09/17 05:49:40;;;;;;;11.68;4.90;;;;;;;;;;10231463;29;20143;-78
2022/09/17 05:54:40;;;;;;;11.43;5.03;;;;;;;;;;10231056;29;20495;-75
2022/09/17 05:59:41;;;;;;;14.57;6.28;;;;;;;;;;10249717;29;20090;-74
2022/09/17 06:04:41;;;;;;;15.73;5.80;;;;;;;;;;10229411;29;20459;-78
2022/09/17 06:09:41;;;;;;;8.63;5.18;;;;;;;;;;10229415;29;20165;-73
2022/09/17 06:14:41;;;;;;;13.30;4.95;;;;;;;;;;10230139;29;20035;-76
2022/09/17 06:19:41;;;;;;;9.68;4.43;;;;;;;;;;10230986;29;20031;-74
2022/09/17 06:24:42;;;;;;;9.50;3.97;;;;;;;;;;10239441;29;20148;-73
2022/09/17 06:29:42;;;;;;;10.57;4.47;;;;;;;;;;10247375;29;20469;-74
2022/09/17 06:34:42;;;;;;;17.10;6.03;;;;;;;;;;10216989;29;20110;-77
2022/09/17 06:39:44;;;;;;;14.90;6.57;;;;;;;;;;10216981;29;20032;-78
2022/09/17 06:44:44;;;;;;;15.57;5.55;;;;;;;;;;10201775;29;20453;-73
2022/09/17 06:49:45;;;;;;;17.33;5.87;;;;;;;;;;10216989;29;20024;-74
2022/09/17 06:54:45;;;;;;;11.73;5.80;;;;;;;;;;10212255;29;20035;-73
2022/09/17 06:59:45;;;;;;;17.73;5.60;;;;;;;;;;10215775;28;20445;-74
2022/09/17 07:04:45;;;;;;;20.15;5.40;;;;;;;;;;10211869;29;20083;-73
2022/09/17 07:09:46;;;;;;;15.60;5.93;;;;;;;;;;10226083;29;20224;-73
2022/09/17 07:14:46;;;;;;;21.25;6.85;;;;;;;;;;10231756;29;20677;-74
2022/09/17 07:19:46;;;;;;;19.25;5.25;;;;;;;;;;10224175;29;20189;-73
2022/09/17 07:24:47;;;;;;;14.55;6.00;;;;;;;;;;10229221;29;20527;-74
2022/09/17 07:29:47;;;;;;;12.18;4.03;;;;;;;;;;10227414;29;20027;-74
2022/09/17 07:34:48;;;;;;;11.27;4.45;;;;;;;;;;10215770;29;20063;-74
2022/09/17 07:39:48;;;;;;;12.90;4.35;;;;;;;;;;10230659;29;20110;-74
2022/09/17 07:44:48;;;;;;;11.32;3.17;;;;;;;;;;10238622;28;20421;-78
2022/09/17 07:49:49;;;;;;;14.52;3.40;;;;;;;;;;10224903;29;20019;-73
2022/09/17 07:54:49;;;;;;;6.22;2.55;;;;;;;;;;10225733;29;20031;-73
2022/09/17 07:59:49;;;;;;;9.88;2.88;;;;;;;;;;10224203;29;20019;-76
2022/09/17 08:04:49;;;;;;;9.13;2.83;;;;;;;;;;10221517;28;20031;-72
2022/09/17 08:09:50;;;;;;;14.05;3.20;;;;;;;;;;10221360;29;20023;-72
2022/09/17 08:14:50;;;;;;;9.07;2.30;;;;;;;;;;10223572;29;20035;-72
2022/09/17 08:19:50;;;;;;;8.77;2.25;;;;;;;;;;10256682;28;20039;-73
2022/09/17 08:24:50;;;;;;;9.40;2.83;;;;;;;;;;10224677;29;20019;-74
2022/09/17 08:29:51;;;;;;;11.43;1.88;;;;;;;;;;10225271;29;20496;-73
2022/09/17 08:34:52;;;;;;;5.80;2.65;;;;;;;;;;10242356;29;20079;-77
2022/09/17 08:39:53;;;;;;;10.55;2.22;;;;;;;;;;10225489;29;20030;-73
2022/09/17 08:44:55;;;;;;;14.30;1.73;;;;;;;;;;10215781;29;20502;-73
2022/09/17 08:49:55;;;;;;;4.95;3.33;;;;;;;;;;10184769;29;20023;-73
2022/09/17 08:54:55;;;;;;;12.30;1.80;;;;;;;;;;10222803;29;20039;-72
2022/09/17 09:00:01;;;;;;;6.97;1.60;;;;;;;;;;10224652;29;20042;-72
2022/09/17 09:05:18;;;;;;;6.57;2.00;;;;;;;;;;10217995;29;20573;-74
2022/09/17 09:10:30;;;;;;;7.32;2.70;;;;;;;;;;10196541;29;20043;-74
2022/09/17 09:15:35;;;;;;;9.60;2.33;;;;;;;;;;10226867;28;20050;-73
2022/09/17 09:20:38;;;;;;;5.53;1.80;;;;;;;;;;10248537;29;20031;-77
2022/09/17 09:25:44;;;;;;;10.07;2.28;;;;;;;;;;10231710;29;20559;-73
2022/09/17 09:30:54;;;;;;;7.97;2.78;;;;;;;;;;10248339;29;20059;-79
2022/09/17 09:35:54;;;;;;;8.43;2.50;;;;;;;;;;10229572;29;20038;-75
2022/09/17 09:41:09;;;;;;;10.20;3.13;;;;;;;;;;10194888;29;20421;-76
2022/09/17 09:46:27;;;;;;;11.15;3.20;;;;;;;;;;10211103;29;20031;-75
2022/09/17 09:51:40;;;;;;;13.20;3.17;;;;;;;;;;10230293;29;20066;-73
2022/09/17 09:56:48;;;;;;;24.38;6.07;;;;;;;;;;10230325;29;20490;-73
2022/09/17 10:01:48;;;;;;;17.52;4.60;;;;;;;;;;10229638;29;20575;-72
2022/09/17 10:06:50;;;;;;;13.15;4.22;;;;;;;;;;10217533;29;20027;-75
2022/09/17 10:12:04;;;;;;;15.55;3.67;;;;;;;;;;10229374;29;20027;-72
2022/09/17 10:17:14;;;;;;;6.53;3.45;;;;;;;;;;10228583;29;20071;-73
2022/09/17 10:22:20;;;;;;;13.43;3.97;;;;;;;;;;10228028;29;20026;-73
2022/09/17 10:27:22;;;;;;;9.80;4.10;;;;;;;;;;10206599;29;20030;-72
2022/09/17 10:32:22;;;;;;;14.98;6.35;;;;;;;;;;10202288;29;20071;-72
2022/09/17 10:37:52;;;;;;;16.73;8.20;;;;;;;;;;10183288;29;20024;-77
2022/09/17 10:43:13;;;;;;;13.98;6.80;;;;;;;;;;10176495;29;20051;-79
2022/09/17 10:48:15;;;;;;;10.00;3.67;;;;;;;;;;10200165;29;20056;-73
2022/09/17 10:53:17;;;;;;;8.77;3.60;;;;;;;;;;10198931;29;20039;-73
2022/09/17 10:58:17;;;;;;;9.18;3.70;;;;;;;;;;10207505;29;20028;-73
2022/09/17 11:03:36;;;;;;;11.90;3.05;;;;;;;;;;10189841;29;20042;-73
2022/09/17 11:08:39;;;;;;;7.35;2.05;;;;;;;;;;10189604;29;20027;-76
2022/09/17 11:13:58;;;;;;;12.88;2.88;;;;;;;;;;10188684;29;20028;-74
2022/09/17 11:18:58;;;;;;;8.63;3.08;;;;;;;;;;10203696;29;20035;-73
2022/09/17 11:23:59;;;;;;;4.32;2.40;;;;;;;;;;10201420;29;20032;-73
2022/09/17 11:29:24;;;;;;;4.93;2.00;;;;;;;;;;10172721;29;20094;-72
2022/09/17 11:34:38;;;;;;;4.80;1.80;;;;;;;;;;10185603;29;20067;-74
2022/09/17 11:39:47;;;;;;;8.93;3.15;;;;;;;;;;10209150;29;20118;-73
2022/09/17 11:44:47;;;;;;;;;;;;;;;;;;10221266;29;20354;-73
2022/09/17 11:49:57;;;;;;;5.72;2.47;;;;;;;;;;10216470;29;19984;-73
2022/09/17 11:55:01;;;;;;;6.15;3.30;;;;;;;;;;10205858;28;20110;-74
2022/09/17 12:00:07;;;;;;;6.32;2.25;;;;;;;;;;10212912;29;20462;-76
2022/09/17 12:05:27;;;;;;;8.57;2.92;;;;;;;;;;10202879;29;20027;-75
2022/09/17 12:10:34;;;;;;;5.88;2.92;;;;;;;;;;10213713;29;20074;-73
2022/09/17 12:15:37;;;;;;;7.50;2.90;;;;;;;;;;10232585;29;20407;-78
2022/09/17 12:20:39;;;;;;;7.85;3.50;;;;;;;;;;10201147;29;20066;-74
2022/09/17 12:25:43;;;;;;;7.75;2.53;;;;;;;;;;10207011;29;20063;-73
2022/09/17 12:30:50;;;;;;;6.85;3.80;;;;;;;;;;10203934;29;20062;-72
2022/09/17 12:35:56;;;;;;;11.18;3.30;;;;;;;;;;10221874;29;20131;-72
2022/09/17 12:40:57;;;;;;;11.05;3.28;;;;;;;;;;10214665;29;20051;-75
2022/09/17 12:46:02;;;;;;;5.43;2.80;;;;;;;;;;10202432;29;20553;-75
2022/09/17 12:51:12;;;;;;;7.15;2.92;;;;;;;;;;10201164;29;20113;-74
2022/09/17 12:56:28;;;;;;;11.38;4.75;;;;;;;;;;10191591;29;20559;-72
2022/09/17 13:01:28;;;;;;;8.40;2.97;;;;;;;;;;10203958;29;20023;-75
2022/09/17 13:06:41;;;;;;;7.18;3.33;;;;;;;;;;10200097;29;20028;-72
2022/09/17 13:11:41;;;;;;;6.22;2.53;;;;;;;;;;10196259;29;20032;-72
2022/09/17 13:17:01;;;;;;;5.30;1.80;;;;;;;;;;10208989;29;20070;-72
2022/09/17 13:22:21;;;;;;;8.25;3.47;;;;;;;;;;10212908;29;20016;-73
2022/09/17 13:27:24;;;;;;;3.75;1.98;;;;;;;;;;10233214;29;20038;-75
2022/09/17 13:32:31;;;;;;;5.97;1.90;;;;;;;;;;10232366;29;20051;-77
2022/09/17 13:37:39;;;;;;;6.05;1.45;;;;;;;;;;10213515;29;20548;-76
2022/09/17 13:42:45;;;;;;;5.50;1.33;;;;;;;;;;10231143;29;20032;-76
2022/09/17 13:47:56;;;;;;;3.38;1.50;;;;;;;;;;10234201;29;20119;-76
2022/09/17 13:52:58;;;;;;;6.78;2.30;;;;;;;;;;10238977;29;20059;-76
2022/09/17 13:58:00;;;;;;;2.67;1.35;;;;;;;;;;10219279;29;20541;-72
2022/09/17 14:03:47;;;;;;;2.00;0.88;;;;;;;;;;10232671;28;20057;-72
2022/09/17 14:13:52;;;;;;;11.77;2.65;;;;;;;;;;10223760;29;20118;-72
2022/09/17 14:18:57;;;;;;;5.07;2.15;;;;;;;;;;10234455;29;20410;-78
2022/09/17 14:24:17;;;;;;;6.70;2.67;;;;;;;;;;10217081;29;20028;-72
2022/09/17 14:29:21;;;;;;;5.97;1.75;;;;;;;;;;10216252;29;20322;-73
2022/09/17 14:34:23;;;;;;;4.68;2.17;;;;;;;;;;10218819;29;20513;-75
2022/09/17 14:39:29;;;;;;;10.93;2.85;;;;;;;;;;10211541;29;20042;-75
2022/09/17 14:44:32;;;;;;;6.85;3.15;;;;;;;;;;10218204;28;20033;-76
2022/09/17 14:49:33;;;;;;;2.75;1.83;;;;;;;;;;10210505;29;20050;-74
2022/09/17 14:54:33;;;;;;;3.95;2.10;;;;;;;;;;10222152;29;20560;-72
2022/09/17 14:59:43;;;;;;;7.18;2.92;;;;;;;;;;10218943;29;20070;-76
2022/09/17 15:04:43;;;;;;;13.02;2.88;;;;;;;;;;10219402;29;20031;-77
2022/09/17 15:09:43;;;;;;;4.27;2.43;;;;;;;;;;10218204;29;20477;-74
2022/09/17 15:14:45;;;;;;;5.28;1.83;;;;;;;;;;10217277;29;20267;-72
2022/09/17 15:19:50;;;;;;;7.57;2.33;;;;;;;;;;10230089;29;20046;-76
2022/09/17 15:25:00;;;;;;;6.82;2.42;;;;;;;;;;10223660;29;20027;-72
2022/09/17 15:30:00;;;;;;;6.70;2.33;;;;;;;;;;10219937;29;20023;-73
2022/09/17 15:35:10;;;;;;;6.38;2.63;;;;;;;;;;10223283;29;20059;-77
2022/09/17 15:40:33;;;;;;;5.82;2.70;;;;;;;;;;10217733;29;20070;-73
2022/09/17 15:45:38;;;;;;;4.88;2.50;;;;;;;;;;10209366;29;20042;-79
2022/09/17 15:50:52;;;;;;;6.10;2.35;;;;;;;;;;10213524;29;20686;-75
2022/09/17 15:56:01;;;;;;;6.78;2.00;;;;;;;;;;10211110;29;20028;-74
2022/09/17 16:01:13;;;;;;;5.40;2.08;;;;;;;;;;10235122;28;20023;-75
2022/09/17 16:06:16;;;;;;;9.02;2.25;;;;;;;;;;10228420;29;20031;-76
2022/09/17 16:11:18;;;;;;;5.88;1.80;;;;;;;;;;10234145;29;20031;-73
2022/09/17 16:16:19;;;;;;;3.45;1.77;;;;;;;;;;10208320;28;20023;-73
2022/09/17 16:21:19;;;;;;;7.65;2.83;;;;;;;;;;10233803;28;20114;-77
2022/09/17 16:26:38;;;;;;;5.45;2.17;;;;;;;;;;10236336;29;20022;-77
2022/09/17 16:31:38;;;;;;;;;;;;;;;;;;10227334;29;20422;-74
2022/09/17 16:36:38;;;;;;;7.43;2.10;;;;;;;;;;10235548;28;19915;-76
2022/09/17 16:41:38;;;;;;;5.23;2.70;;;;;;;;;;10227634;29;20046;-73
2022/09/17 16:46:39;;;;;;;5.90;2.17;;;;;;;;;;10226737;28;20413;-73
2022/09/17 16:51:39;;;;;;;5.55;2.70;;;;;;;;;;10232325;28;20494;-73
2022/09/17 16:56:42;;;;;;;8.70;2.27;;;;;;;;;;10241153;28;20493;-74
2022/09/17 17:01:42;;;;;;;12.38;3.08;;;;;;;;;;10217264;29;20197;-74
2022/09/17 17:06:42;;;;;;;4.27;1.40;;;;;;;;;;10233108;28;20028;-74
2022/09/17 17:11:43;;;;;;;7.90;2.38;;;;;;;;;;10216798;28;20024;-74
2022/09/17 17:16:43;;;;;;;7.47;3.33;;;;;;;;;;10212864;29;20114;-72
2022/09/17 17:21:43;;;;;;;7.40;3.50;;;;;;;;;;10228914;29;20066;-73
2022/09/17 17:26:46;;;;;;;9.03;3.30;;;;;;;;;;10221517;28;20118;-76
2022/09/17 17:31:48;;;;;;;8.25;4.00;;;;;;;;;;10246029;28;20138;-72
2022/09/17 17:36:48;;;;;;;5.00;1.77;;;;;;;;;;10225363;28;20035;-73
2022/09/17 17:41:49;;;;;;;5.05;1.83;;;;;;;;;;10238888;28;20042;-73
2022/09/17 17:46:49;;;;;;;2.90;1.73;;;;;;;;;;10241407;29;20398;-79
2022/09/17 17:51:51;;;;;;;2.92;1.58;;;;;;;;;;10243402;28;20070;-73
2022/09/17 17:56:52;;;;;;;4.60;2.53;;;;;;;;;;10223665;29;20023;-73
2022/09/17 18:01:53;;;;;;;3.85;2.03;;;;;;;;;;10225239;29;20043;-71
2022/09/17 18:06:53;;;;;;;7.07;2.72;;;;;;;;;;10240281;28;20502;-74
2022/09/17 18:11:53;;;;;;;14.57;8.57;;;;;;;;;;10220761;28;20113;-72
2022/09/17 18:16:54;;;;;;;3.40;3.08;;;;;;;;;;10218898;28;20552;-73
2022/09/17 18:21:54;;;;;;;6.07;1.73;;;;;;;;;;10218229;28;20064;-75
2022/09/17 18:26:54;;;;;;;5.88;2.10;;;;;;;;;;10220273;28;20027;-73
2022/09/17 18:31:54;;;;;;;4.65;2.15;;;;;;;;;;10219781;28;20226;-76
2022/09/17 18:36:55;;;;;;;8.25;2.88;;;;;;;;;;10233064;28;20050;-73
2022/09/17 18:41:58;;;;;;;8.23;2.47;;;;;;;;;;10217049;28;20147;-77
2022/09/17 18:47:01;;;;;;;7.00;3.00;;;;;;;;;;10231705;28;20030;-72
2022/09/17 18:52:04;;;;;;;10.90;3.28;;;;;;;;;;10204274;28;20038;-76
2022/09/17 18:57:05;;;;;;;10.95;5.13;;;;;;;;;;10231305;28;20034;-73
2022/09/17 19:02:05;;;;;;;9.70;3.25;;;;;;;;;;10218934;29;20035;-74
2022/09/17 19:07:06;;;;;;;8.27;3.53;;;;;;;;;;10210976;29;20074;-73
2022/09/17 19:12:06;;;;;;;8.48;2.55;;;;;;;;;;10219900;28;20027;-77
2022/09/17 19:17:07;;;;;;;7.00;2.58;;;;;;;;;;10236256;28;20541;-78
2022/09/17 19:22:08;;;;;;;7.28;2.33;;;;;;;;;;10246176;28;20034;-73
2022/09/17 19:27:08;;;;;;;11.20;3.20;;;;;;;;;;10218007;29;20016;-73
2022/09/17 19:32:08;;;;;;;5.78;2.17;;;;;;;;;;10235498;28;20564;-73
2022/09/17 19:37:08;;;;;;;5.72;2.28;;;;;;;;;;10224325;29;20028;-73
2022/09/17 19:42:09;;;;;;;6.20;1.73;;;;;;;;;;10235342;29;20027;-73
2022/09/17 19:47:09;;;;;;;4.43;2.05;;;;;;;;;;10220201;28;20055;-74
2022/09/17 19:52:09;;;;;;;3.40;1.85;;;;;;;;;;10233083;29;20122;-73
2022/09/17 19:57:09;;;;;;;5.55;2.20;;;;;;;;;;10213385;29;20054;-73
2022/09/17 20:02:11;;;;;;;3.00;1.90;;;;;;;;;;10215153;29;20425;-73
2022/09/17 20:07:11;;;;;;;3.30;1.80;;;;;;;;;;10220409;29;20027;-73
2022/09/17 20:12:11;;;;;;;4.72;2.17;;;;;;;;;;10235027;28;20027;-73
2022/09/17 20:17:12;;;;;;;2.85;1.98;;;;;;;;;;10235342;28;20107;-73
2022/09/17 20:22:13;;;;;;;4.28;2.08;;;;;;;;;;10223521;28;20111;-74
2022/09/17 20:27:13;;;;;;;9.02;2.75;;;;;;;;;;10220287;28;20030;-73
2022/09/17 20:32:13;;;;;;;9.48;2.13;;;;;;;;;;10214798;28;20051;-78
2022/09/17 20:37:13;;;;;;;5.00;2.17;;;;;;;;;;10234866;28;20058;-77
2022/09/17 20:42:13;;;;;;;3.70;2.00;;;;;;;;;;10232766;28;20035;-75
2022/09/17 20:47:14;;;;;;;7.32;2.50;;;;;;;;;;10234681;29;20023;-75
2022/09/17 20:52:14;;;;;;;9.77;2.78;;;;;;;;;;10234698;28;20023;-74
2022/09/17 20:57:14;;;;;;;6.50;2.50;;;;;;;;;;10216706;28;20446;-77
2022/09/17 21:02:19;;;;;;;8.30;2.97;;;;;;;;;;10229856;29;20023;-75
2022/09/17 21:07:20;;;;;;;4.18;2.13;;;;;;;;;;10234886;29;20409;-73
2022/09/17 21:12:20;;;;;;;5.10;2.42;;;;;;;;;;10221249;28;20031;-73
2022/09/17 21:17:20;;;;;;;6.35;2.42;;;;;;;;;;10240433;28;20067;-72
2022/09/17 21:22:20;;;;;;;5.93;2.53;;;;;;;;;;10226199;29;20027;-76
2022/09/17 21:27:21;;;;;;;4.60;2.63;;;;;;;;;;10240459;28;20015;-73
2022/09/17 21:32:21;;;;;;;11.35;3.05;;;;;;;;;;10241607;28;20066;-74
2022/09/17 21:37:21;;;;;;;11.98;3.38;;;;;;;;;;10225940;29;20044;-74
2022/09/17 21:42:21;;;;;;;5.10;3.50;;;;;;;;;;10240910;28;20038;-74
2022/09/17 21:47:21;;;;;;;6.32;3.75;;;;;;;;;;10225126;29;20480;-78
2022/09/17 21:52:22;;;;;;;13.05;3.83;;;;;;;;;;10238104;28;20098;-78
2022/09/17 21:57:22;;;;;;;7.47;4.72;;;;;;;;;;10222912;29;20478;-73
2022/09/17 22:02:23;;;;;;;5.40;3.55;;;;;;;;;;10224204;28;20090;-77
2022/09/17 22:07:23;;;;;;;7.50;4.03;;;;;;;;;;10241530;29;20041;-78
2022/09/17 22:12:23;;;;;;;7.07;3.58;;;;;;;;;;10221574;28;20110;-76
2022/09/17 22:17:24;;;;;;;4.78;2.58;;;;;;;;;;10220752;28;20029;-77
2022/09/17 22:22:25;;;;;;;5.53;2.83;;;;;;;;;;10221894;28;20030;-72
2022/09/17 22:27:25;;;;;;;8.50;2.58;;;;;;;;;;10223663;29;20030;-78
2022/09/17 22:32:27;;;;;;;6.15;2.50;;;;;;;;;;10237461;29;20485;-78
2022/09/17 22:37:27;;;;;;;5.07;2.55;;;;;;;;;;10217362;28;20055;-73
2022/09/17 22:42:28;;;;;;;3.28;1.15;;;;;;;;;;10233975;28;20106;-74
2022/09/17 22:47:28;;;;;;;5.40;1.40;;;;;;;;;;10217330;28;20025;-74
2022/09/17 22:52:28;;;;;;;4.27;1.70;;;;;;;;;;10217397;28;20113;-76
2022/09/17 22:57:28;;;;;;;4.80;1.65;;;;;;;;;;10228796;28;20798;-74
2022/09/17 23:02:29;;;;;;;5.53;1.67;;;;;;;;;;10229114;28;20114;-77
2022/09/17 23:07:29;;;;;;;7.00;1.60;;;;;;;;;;10216867;28;20015;-79
2022/09/17 23:12:29;;;;;;;9.25;1.58;;;;;;;;;;10216367;28;20023;-73
2022/09/17 23:17:29;;;;;;;4.78;1.98;;;;;;;;;;10216186;28;20529;-80
2022/09/17 23:22:30;;;;;;;8.10;1.98;;;;;;;;;;10219469;28;20026;-74
2022/09/17 23:27:30;;;;;;;7.60;1.57;;;;;;;;;;10227487;29;20213;-78
2022/09/17 23:32:30;;;;;;;6.07;1.95;;;;;;;;;;10227305;28;20047;-74
2022/09/17 23:37:30;;;;;;;3.88;1.83;;;;;;;;;;10227106;29;20019;-73
2022/09/17 23:42:35;;;;;;;9.43;2.17;;;;;;;;;;10227495;29;20034;-79
2022/09/17 23:47:35;;;;;;;6.78;3.13;;;;;;;;;;10225381;29;20047;-74
2022/09/17 23:52:35;;;;;;;9.60;2.87;;;;;;;;;;10227608;29;20126;-74
2022/09/17 23:57:36;;;;;;;3.40;2.50;;;;;;;;;;10238699;28;20039;-73
